Buffalo Niagara International, NY

4:48 PM EST on January 26, 2015 (GMT -0500)
Buffalo Niagara International | Change Station
CLOSE
Current Station
Airport
Location: Buffalo,
Elevation: 702 ft
Nearby Weather Stations

Elev 702 ft 42.94 °N, 78.74 °W | Updated 32 minutes ago

Light Snow
Light Snow
19 °F
Feels Like 4 °F
N
16
Wind Variable Wind from ENE

Today
High -- | Low -- °F
--% Chance of Precip.
Yesterday
High -- | Low -- °F
Precip. -- in
7:35 AM 5:19 PM
Waxing Crescent, 47% visible
Pressure 29.88 in
Visibility 3.0 miles
Clouds Scattered Clouds 1700 ft
Scattered Clouds 2400 ft
Mostly Cloudy 3700 ft
Overcast 13000 ft
Windchill 4 °F
Dew Point 12 °F
Humidity 74%
Rainfall 0.04 in
Snow Depth Not available.
UV 0 out of 12
Pollen .10 out of 12
Air Quality Not available.
Flu Activity Not available.
SPECI KBUF 262116Z 07014KT 3SM -SN SCT017 SCT024 BKN037 OVC130 M07/M11 A2988 RMK AO2 P0001 T10721111

More Conditions Fewer Conditions

Pressure 29.88 in
Visibility 3.0 miles
Clouds Scattered Clouds 1700 ft
Scattered Clouds 2400 ft
Mostly Cloudy 3700 ft
Overcast 13000 ft
Windchill 4 °F
Dew Point 12 °F
Humidity 74%
Rainfall 0.04 in
Snow Depth Not available.
UV 0 out of 12
Pollen .10 out of 12
Air Quality Not available.
Flu Activity Not available.
SPECI KBUF 262116Z 07014KT 3SM -SN SCT017 SCT024 BKN037 OVC130 M07/M11 A2988 RMK AO2 P0001 T10721111

More Conditions Fewer Conditions

10-Day Weather Forecast

Almanac

Astronomy

Jan. 26, 2015 Rise Set
Actual Time
Civil Twilight
Nautical Twilight
Astronomical Twilight
Moon
Length of Visible Light
Length of Day
Tomorrow will be .
, % of the Moon is Illuminated

Today's Extremes

State Highs State Lows

Community

WunderPhotos

Upload Photos

1,790,370 photos uploaded!

WunderBlogs® & News

Nearby

Air Quality

  Air Quality AQ Index Pollutant
Not available.

Snow Depth

Station Depth Elevation

Earthquake Activity

City Distance Mag. Time & Date
Minimum magnitude displayed is 2.5.

Coastal Water Temperatures

Place Temperature

Nearby Weather Stations